Arcadia Highway — 3FQT4 — position and weather

sailwx.info

Track history (hours):
 
Tides and Currents Weather Stations Pressure Air Temp Water Temp Dewpoint Dewpoint Depression Visibility Wind Speed Wind Dir Waves Ship Positions

Arcadia Highway

Last reported at 2014-Dec-11 15:27 UTC. Time now 2014-Dec-22 18:30 UTC.
Position N 01°55' E 102°18'.
Warning: this ship's position is 11 days out of date.

Length 179 m; draft 8.1 m.

Type: Cargo ship. MMSI: 354342000.

Date/timePositionNaut miles runAvg speedWind from/ knotsBaromVisibWave heightAir tempDewpointWater temp
2014-Dec-11 15:27N 01°55' E 102°18'1513.9
2014-Dec-11 14:22N 01°49' E 102°32'1314.6
2014-Dec-11 13:30N 01°44' E 102°44'6713.0
2014-Dec-11 08:21N 01°16' E 103°45'1 0.8
2014-Dec-11 07:07N 01°17' E 103°45'0 0.1
2014-Dec-11 06:31N 01°17' E 103°45'0 0.0
2014-Dec-11 04:25N 01°17' E 103°45'0 0.1
2014-Dec-11 03:31N 01°17' E 103°45'0 0.0
2014-Dec-11 02:31N 01°17' E 103°45'0 0.0
2014-Dec-11 01:13N 01°17' E 103°45'0 0.0
2014-Dec-11 00:31N 01°17' E 103°45'0 0.0
2014-Dec-10 23:31N 01°17' E 103°45'0 0.0
2014-Dec-10 22:31N 01°17' E 103°45'0 0.0
2014-Dec-10 21:31N 01°17' E 103°45'0 0.0
2014-Dec-10 20:22N 01°17' E 103°45'8 8.1
2014-Dec-10 19:25N 01°12' E 103°51'5 5.8
2014-Dec-10 18:33N 01°16' E 103°55'0 0.0
2014-Dec-10 17:15N 01°16' E 103°55'0 0.0
2014-Dec-10 14:21N 01°16' E 103°55'0 0.0
2014-Dec-10 13:03N 01°16' E 103°55'0 0.3
2014-Dec-10 12:33N 01°16' E 103°55'0 0.0
2014-Dec-10 11:33N 01°16' E 103°55'0 0.0
2014-Dec-10 06:21N 01°16' E 103°55'0 0.0
2014-Dec-10 05:03N 01°16' E 103°55'0 0.0
2014-Dec-10 02:21N 01°16' E 103°55'0 0.0
2014-Dec-10 01:33N 01°16' E 103°55'1 1.0
2014-Dec-10 00:33N 01°15' E 103°54'3 3.2
2014-Dec-09 23:32N 01°15' E 103°57'1212.8
2014-Dec-09 22:34N 01°17' E 104°10'  
2014-Dec-06 03:24N 22°07' E 113°48'1012.2
2014-Dec-06 02:32N 22°17' E 113°48'45 5.0
2014-Dec-05 17:31N 22°60' E 113°31'1 0.1
2014-Dec-05 08:33N 23°01' E 113°32'48 9.5
2014-Dec-05 03:29N 22°15' E 113°48'  
Track history (hours):
 
Tides and Currents Weather Stations Pressure Air Temp Water Temp Dewpoint Dewpoint Depression Visibility Wind Speed Wind Dir Waves Ship Positions

Arcadia Highway

Last reported at 2014-Dec-11 15:27 UTC. Time now 2014-Dec-22 18:30 UTC.
Position N 01°55' E 102°18'.
Warning: this ship's position is 11 days out of date.

Length 179 m; draft 8.1 m.

Type: Cargo ship. MMSI: 354342000.

Date/timePositionNaut miles runAvg speedWind from/ knotsBaromVisibWave heightAir tempDewpointWater temp
2014-Dec-11 15:27N 01°55' E 102°18'1513.9
2014-Dec-11 14:22N 01°49' E 102°32'1314.6
2014-Dec-11 13:30N 01°44' E 102°44'6713.0
2014-Dec-11 08:21N 01°16' E 103°45'1 0.8
2014-Dec-11 07:07N 01°17' E 103°45'0 0.1
2014-Dec-11 06:31N 01°17' E 103°45'0 0.0
2014-Dec-11 04:25N 01°17' E 103°45'0 0.1
2014-Dec-11 03:31N 01°17' E 103°45'0 0.0
2014-Dec-11 02:31N 01°17' E 103°45'0 0.0
2014-Dec-11 01:13N 01°17' E 103°45'0 0.0
2014-Dec-11 00:31N 01°17' E 103°45'0 0.0
2014-Dec-10 23:31N 01°17' E 103°45'0 0.0
2014-Dec-10 22:31N 01°17' E 103°45'0 0.0
2014-Dec-10 21:31N 01°17' E 103°45'0 0.0
2014-Dec-10 20:22N 01°17' E 103°45'8 8.1
2014-Dec-10 19:25N 01°12' E 103°51'5 5.8
2014-Dec-10 18:33N 01°16' E 103°55'0 0.0
2014-Dec-10 17:15N 01°16' E 103°55'0 0.0
2014-Dec-10 14:21N 01°16' E 103°55'0 0.0
2014-Dec-10 13:03N 01°16' E 103°55'0 0.3
2014-Dec-10 12:33N 01°16' E 103°55'0 0.0
2014-Dec-10 11:33N 01°16' E 103°55'0 0.0
2014-Dec-10 06:21N 01°16' E 103°55'0 0.0
2014-Dec-10 05:03N 01°16' E 103°55'0 0.0
2014-Dec-10 02:21N 01°16' E 103°55'0 0.0
2014-Dec-10 01:33N 01°16' E 103°55'1 1.0
2014-Dec-10 00:33N 01°15' E 103°54'3 3.2
2014-Dec-09 23:32N 01°15' E 103°57'1212.8
2014-Dec-09 22:34N 01°17' E 104°10'  
2014-Dec-06 03:24N 22°07' E 113°48'1012.2
2014-Dec-06 02:32N 22°17' E 113°48'45 5.0
2014-Dec-05 17:31N 22°60' E 113°31'1 0.1
2014-Dec-05 08:33N 23°01' E 113°32'48 9.5
2014-Dec-05 03:29N 22°15' E 113°48'  

Dump ship's entire track history